sensor_id;sensor_type;location;lat;lon;timestamp;P1;durP1;ratioP1;P2;durP2;ratioP2
21099;SDS011;10708;50.824;4.408;2023-02-28T00:03:16;529.90;;;499.33;;
21099;SDS011;10708;50.824;4.408;2023-02-28T00:08:20;137.93;;;130.45;;
21099;SDS011;10708;50.824;4.408;2023-02-28T00:13:22;91.90;;;86.18;;
21099;SDS011;10708;50.824;4.408;2023-02-28T00:18:24;74.68;;;70.28;;
21099;SDS011;10708;50.824;4.408;2023-02-28T00:23:28;187.87;;;177.80;;
21099;SDS011;10708;50.824;4.408;2023-02-28T00:28:31;129.02;;;121.90;;
21099;SDS011;10708;50.824;4.408;2023-02-28T00:33:33;145.67;;;137.87;;
21099;SDS011;10708;50.824;4.408;2023-02-28T00:38:37;206.40;;;195.50;;
21099;SDS011;10708;50.824;4.408;2023-02-28T00:43:41;166.27;;;157.38;;
21099;SDS011;10708;50.824;4.408;2023-02-28T00:48:43;147.43;;;139.75;;
21099;SDS011;10708;50.824;4.408;2023-02-28T00:53:47;186.65;;;176.85;;
21099;SDS011;10708;50.824;4.408;2023-02-28T00:58:49;168.95;;;159.75;;
21099;SDS011;10708;50.824;4.408;2023-02-28T01:03:51;227.32;;;215.60;;
21099;SDS011;10708;50.824;4.408;2023-02-28T01:08:55;197.70;;;187.43;;
21099;SDS011;10708;50.824;4.408;2023-02-28T01:13:57;221.10;;;209.47;;
21099;SDS011;10708;50.824;4.408;2023-02-28T01:19:00;223.80;;;211.88;;
21099;SDS011;10708;50.824;4.408;2023-02-28T01:24:04;66.57;;;62.40;;
21099;SDS011;10708;50.824;4.408;2023-02-28T01:29:07;371.57;;;351.97;;
21099;SDS011;10708;50.824;4.408;2023-02-28T01:34:10;318.75;;;302.08;;
21099;SDS011;10708;50.824;4.408;2023-02-28T01:39:14;373.35;;;353.27;;
21099;SDS011;10708;50.824;4.408;2023-02-28T01:49:55;306.53;;;290.60;;
21099;SDS011;10708;50.824;4.408;2023-02-28T01:54:59;232.85;;;220.68;;
21099;SDS011;10708;50.824;4.408;2023-02-28T02:00:07;116.45;;;109.85;;
21099;SDS011;10708;50.824;4.408;2023-02-28T02:05:15;268.25;;;253.95;;
21099;SDS011;10708;50.824;4.408;2023-02-28T02:10:21;484.48;;;457.02;;
21099;SDS011;10708;50.824;4.408;2023-02-28T02:15:29;167.38;;;158.13;;
21099;SDS011;10708;50.824;4.408;2023-02-28T02:26:23;72.43;;;67.70;;
21099;SDS011;10708;50.824;4.408;2023-02-28T02:31:57;118.63;;;111.70;;
21099;SDS011;10708;50.824;4.408;2023-02-28T02:37:28;160.93;;;151.50;;
21099;SDS011;10708;50.824;4.408;2023-02-28T02:42:40;179.20;;;169.27;;
21099;SDS011;10708;50.824;4.408;2023-02-28T02:47:49;181.23;;;171.13;;
21099;SDS011;10708;50.824;4.408;2023-02-28T02:52:56;154.03;;;145.53;;
21099;SDS011;10708;50.824;4.408;2023-02-28T02:58:01;133.20;;;125.68;;
21099;SDS011;10708;50.824;4.408;2023-02-28T03:03:06;95.80;;;90.27;;
21099;SDS011;10708;50.824;4.408;2023-02-28T03:08:12;103.45;;;97.43;;
21099;SDS011;10708;50.824;4.408;2023-02-28T03:13:19;80.57;;;75.57;;
21099;SDS011;10708;50.824;4.408;2023-02-28T03:18:40;67.82;;;63.47;;
21099;SDS011;10708;50.824;4.408;2023-02-28T03:23:55;62.37;;;58.37;;
21099;SDS011;10708;50.824;4.408;2023-02-28T03:29:06;54.70;;;51.00;;
21099;SDS011;10708;50.824;4.408;2023-02-28T03:34:19;49.80;;;46.30;;
21099;SDS011;10708;50.824;4.408;2023-02-28T03:39:31;51.67;;;47.78;;
21099;SDS011;10708;50.824;4.408;2023-02-28T03:44:40;56.05;;;52.30;;
21099;SDS011;10708;50.824;4.408;2023-02-28T03:49:45;75.10;;;70.25;;
21099;SDS011;10708;50.824;4.408;2023-02-28T03:54:53;99.22;;;93.05;;
21099;SDS011;10708;50.824;4.408;2023-02-28T03:59:59;132.03;;;124.43;;
21099;SDS011;10708;50.824;4.408;2023-02-28T04:05:06;177.77;;;167.70;;
21099;SDS011;10708;50.824;4.408;2023-02-28T04:10:11;213.25;;;201.68;;
21099;SDS011;10708;50.824;4.408;2023-02-28T04:15:14;200.88;;;190.00;;
21099;SDS011;10708;50.824;4.408;2023-02-28T04:20:17;252.40;;;238.90;;
21099;SDS011;10708;50.824;4.408;2023-02-28T04:25:21;197.47;;;186.20;;
21099;SDS011;10708;50.824;4.408;2023-02-28T04:30:23;161.10;;;151.73;;
21099;SDS011;10708;50.824;4.408;2023-02-28T04:35:25;117.17;;;110.47;;
21099;SDS011;10708;50.824;4.408;2023-02-28T04:40:29;113.38;;;106.57;;
21099;SDS011;10708;50.824;4.408;2023-02-28T04:45:31;95.93;;;90.03;;
21099;SDS011;10708;50.824;4.408;2023-02-28T04:50:34;90.22;;;84.50;;
21099;SDS011;10708;50.824;4.408;2023-02-28T04:55:38;114.05;;;107.25;;
21099;SDS011;10708;50.824;4.408;2023-02-28T05:00:41;123.35;;;115.72;;
21099;SDS011;10708;50.824;4.408;2023-02-28T05:05:43;145.35;;;136.77;;
21099;SDS011;10708;50.824;4.408;2023-02-28T05:10:47;169.55;;;159.85;;
21099;SDS011;10708;50.824;4.408;2023-02-28T05:15:49;199.25;;;188.05;;
21099;SDS011;10708;50.824;4.408;2023-02-28T05:20:51;296.13;;;280.25;;
21099;SDS011;10708;50.824;4.408;2023-02-28T05:25:55;311.40;;;295.27;;
21099;SDS011;10708;50.824;4.408;2023-02-28T05:30:58;269.97;;;255.80;;
21099;SDS011;10708;50.824;4.408;2023-02-28T05:36:01;264.65;;;250.70;;
21099;SDS011;10708;50.824;4.408;2023-02-28T05:41:08;245.10;;;231.93;;
21099;SDS011;10708;50.824;4.408;2023-02-28T05:46:12;287.45;;;272.05;;
21099;SDS011;10708;50.824;4.408;2023-02-28T05:51:14;265.35;;;251.13;;
21099;SDS011;10708;50.824;4.408;2023-02-28T05:56:19;299.57;;;283.53;;
21099;SDS011;10708;50.824;4.408;2023-02-28T06:01:23;321.27;;;304.27;;
21099;SDS011;10708;50.824;4.408;2023-02-28T06:06:36;299.63;;;284.00;;
21099;SDS011;10708;50.824;4.408;2023-02-28T06:11:41;270.30;;;255.85;;
21099;SDS011;10708;50.824;4.408;2023-02-28T06:16:44;287.30;;;272.05;;
21099;SDS011;10708;50.824;4.408;2023-02-28T06:21:49;311.50;;;294.92;;
21099;SDS011;10708;50.824;4.408;2023-02-28T06:26:55;324.75;;;308.02;;
21099;SDS011;10708;50.824;4.408;2023-02-28T06:31:59;275.27;;;260.58;;
21099;SDS011;10708;50.824;4.408;2023-02-28T06:37:02;203.68;;;192.63;;
21099;SDS011;10708;50.824;4.408;2023-02-28T06:42:05;127.85;;;120.32;;
21099;SDS011;10708;50.824;4.408;2023-02-28T06:47:08;111.03;;;104.72;;
21099;SDS011;10708;50.824;4.408;2023-02-28T06:52:14;98.43;;;92.43;;
21099;SDS011;10708;50.824;4.408;2023-02-28T06:57:21;91.80;;;85.82;;
21099;SDS011;10708;50.824;4.408;2023-02-28T07:02:25;84.65;;;79.13;;
21099;SDS011;10708;50.824;4.408;2023-02-28T07:07:28;99.70;;;93.43;;
21099;SDS011;10708;50.824;4.408;2023-02-28T07:12:31;115.80;;;108.88;;
21099;SDS011;10708;50.824;4.408;2023-02-28T07:17:34;100.13;;;93.97;;
21099;SDS011;10708;50.824;4.408;2023-02-28T07:22:36;220.60;;;208.65;;
21099;SDS011;10708;50.824;4.408;2023-02-28T07:27:40;285.13;;;269.77;;
21099;SDS011;10708;50.824;4.408;2023-02-28T07:32:43;99.67;;;94.03;;
21099;SDS011;10708;50.824;4.408;2023-02-28T07:37:45;179.40;;;169.67;;
21099;SDS011;10708;50.824;4.408;2023-02-28T07:42:49;89.30;;;84.03;;
21099;SDS011;10708;50.824;4.408;2023-02-28T07:47:52;148.18;;;139.98;;
21099;SDS011;10708;50.824;4.408;2023-02-28T07:52:55;188.97;;;178.77;;
21099;SDS011;10708;50.824;4.408;2023-02-28T07:57:58;138.57;;;130.95;;
21099;SDS011;10708;50.824;4.408;2023-02-28T08:03:01;108.93;;;102.70;;
21099;SDS011;10708;50.824;4.408;2023-02-28T08:08:04;119.40;;;112.80;;
21099;SDS011;10708;50.824;4.408;2023-02-28T08:13:08;104.93;;;99.10;;
21099;SDS011;10708;50.824;4.408;2023-02-28T08:18:11;156.32;;;148.02;;
21099;SDS011;10708;50.824;4.408;2023-02-28T08:23:13;201.82;;;191.27;;
21099;SDS011;10708;50.824;4.408;2023-02-28T08:28:17;109.60;;;103.50;;
21099;SDS011;10708;50.824;4.408;2023-02-28T08:33:20;108.88;;;102.53;;
21099;SDS011;10708;50.824;4.408;2023-02-28T08:38:23;77.70;;;73.07;;
21099;SDS011;10708;50.824;4.408;2023-02-28T08:43:27;182.10;;;172.00;;
21099;SDS011;10708;50.824;4.408;2023-02-28T08:48:30;87.28;;;82.10;;
21099;SDS011;10708;50.824;4.408;2023-02-28T08:53:34;59.42;;;55.83;;
21099;SDS011;10708;50.824;4.408;2023-02-28T08:58:38;186.88;;;176.68;;
21099;SDS011;10708;50.824;4.408;2023-02-28T09:03:41;252.98;;;239.43;;
21099;SDS011;10708;50.824;4.408;2023-02-28T09:08:44;153.63;;;145.45;;
21099;SDS011;10708;50.824;4.408;2023-02-28T09:13:48;174.88;;;165.48;;
21099;SDS011;10708;50.824;4.408;2023-02-28T09:18:51;201.30;;;190.35;;
21099;SDS011;10708;50.824;4.408;2023-02-28T09:23:54;132.48;;;125.45;;
21099;SDS011;10708;50.824;4.408;2023-02-28T09:28:58;94.95;;;89.80;;
21099;SDS011;10708;50.824;4.408;2023-02-28T09:34:00;110.15;;;104.25;;
21099;SDS011;10708;50.824;4.408;2023-02-28T09:39:02;116.25;;;110.00;;
21099;SDS011;10708;50.824;4.408;2023-02-28T09:44:12;130.80;;;123.93;;
21099;SDS011;10708;50.824;4.408;2023-02-28T09:49:21;158.57;;;150.27;;
21099;SDS011;10708;50.824;4.408;2023-02-28T09:54:28;111.93;;;106.07;;
21099;SDS011;10708;50.824;4.408;2023-02-28T09:59:38;97.65;;;92.18;;
21099;SDS011;10708;50.824;4.408;2023-02-28T10:04:46;108.43;;;102.73;;
21099;SDS011;10708;50.824;4.408;2023-02-28T10:09:56;77.72;;;73.32;;
21099;SDS011;10708;50.824;4.408;2023-02-28T10:15:02;66.65;;;62.90;;
21099;SDS011;10708;50.824;4.408;2023-02-28T10:20:07;79.13;;;74.75;;
21099;SDS011;10708;50.824;4.408;2023-02-28T10:25:17;84.67;;;80.17;;
21099;SDS011;10708;50.824;4.408;2023-02-28T10:30:22;98.57;;;93.18;;
21099;SDS011;10708;50.824;4.408;2023-02-28T10:35:25;184.88;;;175.32;;
21099;SDS011;10708;50.824;4.408;2023-02-28T10:40:30;160.95;;;152.50;;
21099;SDS011;10708;50.824;4.408;2023-02-28T10:45:35;165.37;;;156.87;;
21099;SDS011;10708;50.824;4.408;2023-02-28T10:50:41;119.30;;;113.07;;
21099;SDS011;10708;50.824;4.408;2023-02-28T10:55:46;144.70;;;137.40;;
21099;SDS011;10708;50.824;4.408;2023-02-28T11:01:00;158.37;;;150.23;;
21099;SDS011;10708;50.824;4.408;2023-02-28T11:06:06;195.47;;;185.67;;
21099;SDS011;10708;50.824;4.408;2023-02-28T11:11:13;220.90;;;209.80;;
21099;SDS011;10708;50.824;4.408;2023-02-28T11:16:18;254.50;;;241.73;;
21099;SDS011;10708;50.824;4.408;2023-02-28T11:21:22;141.13;;;133.75;;
21099;SDS011;10708;50.824;4.408;2023-02-28T11:26:35;98.00;;;92.77;;
21099;SDS011;10708;50.824;4.408;2023-02-28T11:31:40;124.53;;;118.10;;
21099;SDS011;10708;50.824;4.408;2023-02-28T11:36:43;127.90;;;121.32;;
21099;SDS011;10708;50.824;4.408;2023-02-28T11:41:50;102.03;;;96.57;;
21099;SDS011;10708;50.824;4.408;2023-02-28T11:47:06;122.80;;;116.40;;
21099;SDS011;10708;50.824;4.408;2023-02-28T11:52:18;133.13;;;126.32;;
21099;SDS011;10708;50.824;4.408;2023-02-28T11:57:36;135.27;;;128.18;;
21099;SDS011;10708;50.824;4.408;2023-02-28T12:02:58;123.65;;;117.25;;
21099;SDS011;10708;50.824;4.408;2023-02-28T12:08:16;112.50;;;106.68;;
21099;SDS011;10708;50.824;4.408;2023-02-28T12:13:29;79.80;;;75.53;;
21099;SDS011;10708;50.824;4.408;2023-02-28T12:18:50;47.60;;;44.93;;
21099;SDS011;10708;50.824;4.408;2023-02-28T12:24:07;43.57;;;41.07;;
21099;SDS011;10708;50.824;4.408;2023-02-28T12:29:24;46.27;;;43.77;;
21099;SDS011;10708;50.824;4.408;2023-02-28T12:34:33;48.10;;;45.35;;
21099;SDS011;10708;50.824;4.408;2023-02-28T12:39:39;59.88;;;56.60;;
21099;SDS011;10708;50.824;4.408;2023-02-28T12:44:46;47.75;;;45.05;;
21099;SDS011;10708;50.824;4.408;2023-02-28T12:49:56;53.40;;;50.15;;
21099;SDS011;10708;50.824;4.408;2023-02-28T12:55:03;51.60;;;48.70;;
21099;SDS011;10708;50.824;4.408;2023-02-28T13:00:10;51.75;;;48.88;;
21099;SDS011;10708;50.824;4.408;2023-02-28T13:05:28;52.05;;;49.08;;
21099;SDS011;10708;50.824;4.408;2023-02-28T13:10:51;41.75;;;39.30;;
21099;SDS011;10708;50.824;4.408;2023-02-28T13:16:03;43.80;;;41.10;;
21099;SDS011;10708;50.824;4.408;2023-02-28T13:21:09;49.37;;;46.57;;
21099;SDS011;10708;50.824;4.408;2023-02-28T13:32:19;49.20;;;46.30;;
21099;SDS011;10708;50.824;4.408;2023-02-28T13:37:33;45.60;;;42.80;;
21099;SDS011;10708;50.824;4.408;2023-02-28T13:42:46;45.80;;;43.30;;
21099;SDS011;10708;50.824;4.408;2023-02-28T13:47:51;50.77;;;47.97;;
21099;SDS011;10708;50.824;4.408;2023-02-28T13:53:01;50.13;;;47.35;;
21099;SDS011;10708;50.824;4.408;2023-02-28T13:58:28;50.78;;;47.97;;
21099;SDS011;10708;50.824;4.408;2023-02-28T14:03:50;49.47;;;46.63;;
21099;SDS011;10708;50.824;4.408;2023-02-28T14:09:16;42.50;;;39.83;;
21099;SDS011;10708;50.824;4.408;2023-02-28T14:19:58;39.25;;;36.95;;
21099;SDS011;10708;50.824;4.408;2023-02-28T14:25:07;46.47;;;43.97;;
21099;SDS011;10708;50.824;4.408;2023-02-28T14:35:47;59.67;;;56.47;;
21099;SDS011;10708;50.824;4.408;2023-02-28T14:41:02;50.97;;;47.97;;
21099;SDS011;10708;50.824;4.408;2023-02-28T14:46:08;58.20;;;54.90;;
21099;SDS011;10708;50.824;4.408;2023-02-28T14:51:18;50.95;;;47.85;;
21099;SDS011;10708;50.824;4.408;2023-02-28T14:56:24;50.80;;;47.85;;
21099;SDS011;10708;50.824;4.408;2023-02-28T15:01:30;41.95;;;39.58;;
21099;SDS011;10708;50.824;4.408;2023-02-28T15:06:34;38.67;;;36.47;;
21099;SDS011;10708;50.824;4.408;2023-02-28T15:11:40;38.00;;;35.80;;
21099;SDS011;10708;50.824;4.408;2023-02-28T15:16:47;37.63;;;35.57;;
21099;SDS011;10708;50.824;4.408;2023-02-28T15:21:55;38.75;;;36.38;;
21099;SDS011;10708;50.824;4.408;2023-02-28T15:27:04;43.60;;;41.20;;
21099;SDS011;10708;50.824;4.408;2023-02-28T15:32:27;43.53;;;41.03;;
21099;SDS011;10708;50.824;4.408;2023-02-28T15:37:38;47.08;;;44.17;;
21099;SDS011;10708;50.824;4.408;2023-02-28T15:42:56;41.33;;;38.72;;
21099;SDS011;10708;50.824;4.408;2023-02-28T15:48:00;43.97;;;41.53;;
21099;SDS011;10708;50.824;4.408;2023-02-28T15:53:02;48.90;;;45.90;;
21099;SDS011;10708;50.824;4.408;2023-02-28T15:58:08;50.65;;;47.67;;
21099;SDS011;10708;50.824;4.408;2023-02-28T16:03:25;55.90;;;52.87;;
21099;SDS011;10708;50.824;4.408;2023-02-28T16:08:28;50.35;;;47.55;;
21099;SDS011;10708;50.824;4.408;2023-02-28T16:13:32;58.72;;;55.53;;
21099;SDS011;10708;50.824;4.408;2023-02-28T16:18:35;53.17;;;50.27;;
21099;SDS011;10708;50.824;4.408;2023-02-28T16:23:40;62.67;;;59.30;;
21099;SDS011;10708;50.824;4.408;2023-02-28T16:28:45;71.50;;;67.47;;
21099;SDS011;10708;50.824;4.408;2023-02-28T16:33:47;69.93;;;66.00;;
21099;SDS011;10708;50.824;4.408;2023-02-28T16:38:50;66.25;;;62.58;;
21099;SDS011;10708;50.824;4.408;2023-02-28T16:43:54;80.60;;;76.10;;
21099;SDS011;10708;50.824;4.408;2023-02-28T16:49:00;79.95;;;75.55;;
21099;SDS011;10708;50.824;4.408;2023-02-28T16:54:03;65.80;;;62.07;;
21099;SDS011;10708;50.824;4.408;2023-02-28T16:59:07;80.05;;;75.88;;
21099;SDS011;10708;50.824;4.408;2023-02-28T17:04:10;66.18;;;62.47;;
21099;SDS011;10708;50.824;4.408;2023-02-28T17:09:16;52.60;;;49.63;;
21099;SDS011;10708;50.824;4.408;2023-02-28T17:14:21;59.03;;;55.73;;
21099;SDS011;10708;50.824;4.408;2023-02-28T17:19:24;73.28;;;69.22;;
21099;SDS011;10708;50.824;4.408;2023-02-28T17:24:30;75.65;;;71.50;;
21099;SDS011;10708;50.824;4.408;2023-02-28T17:29:33;54.35;;;51.35;;
21099;SDS011;10708;50.824;4.408;2023-02-28T17:34:36;56.60;;;53.00;;
21099;SDS011;10708;50.824;4.408;2023-02-28T17:39:38;51.60;;;48.73;;
21099;SDS011;10708;50.824;4.408;2023-02-28T17:44:42;56.97;;;53.70;;
21099;SDS011;10708;50.824;4.408;2023-02-28T17:49:44;62.85;;;59.15;;
21099;SDS011;10708;50.824;4.408;2023-02-28T17:54:47;64.37;;;60.67;;
21099;SDS011;10708;50.824;4.408;2023-02-28T17:59:50;67.32;;;63.42;;
21099;SDS011;10708;50.824;4.408;2023-02-28T18:04:53;73.97;;;69.75;;
21099;SDS011;10708;50.824;4.408;2023-02-28T18:09:55;75.33;;;71.03;;
21099;SDS011;10708;50.824;4.408;2023-02-28T18:14:58;76.40;;;72.00;;
21099;SDS011;10708;50.824;4.408;2023-02-28T18:20:01;76.95;;;72.57;;
21099;SDS011;10708;50.824;4.408;2023-02-28T18:25:05;80.55;;;76.15;;
21099;SDS011;10708;50.824;4.408;2023-02-28T18:30:15;90.13;;;84.40;;
21099;SDS011;10708;50.824;4.408;2023-02-28T18:35:18;82.10;;;77.20;;
21099;SDS011;10708;50.824;4.408;2023-02-28T18:40:34;83.85;;;79.05;;
21099;SDS011;10708;50.824;4.408;2023-02-28T18:45:38;79.70;;;75.03;;
21099;SDS011;10708;50.824;4.408;2023-02-28T18:50:41;79.93;;;75.22;;
21099;SDS011;10708;50.824;4.408;2023-02-28T18:55:43;80.53;;;75.88;;
21099;SDS011;10708;50.824;4.408;2023-02-28T19:00:47;83.07;;;78.27;;
21099;SDS011;10708;50.824;4.408;2023-02-28T19:05:52;96.40;;;91.00;;
21099;SDS011;10708;50.824;4.408;2023-02-28T19:10:55;84.90;;;80.00;;
21099;SDS011;10708;50.824;4.408;2023-02-28T19:16:01;83.28;;;78.15;;
21099;SDS011;10708;50.824;4.408;2023-02-28T19:21:05;90.03;;;85.03;;
21099;SDS011;10708;50.824;4.408;2023-02-28T19:26:09;119.20;;;112.80;;
21099;SDS011;10708;50.824;4.408;2023-02-28T19:31:15;123.07;;;116.10;;
21099;SDS011;10708;50.824;4.408;2023-02-28T19:36:19;127.35;;;120.32;;
21099;SDS011;10708;50.824;4.408;2023-02-28T19:41:22;107.80;;;101.82;;
21099;SDS011;10708;50.824;4.408;2023-02-28T19:46:25;114.43;;;108.00;;
21099;SDS011;10708;50.824;4.408;2023-02-28T19:51:28;115.47;;;108.97;;
21099;SDS011;10708;50.824;4.408;2023-02-28T19:56:31;137.60;;;129.65;;
21099;SDS011;10708;50.824;4.408;2023-02-28T20:01:35;140.57;;;132.77;;
21099;SDS011;10708;50.824;4.408;2023-02-28T20:06:38;218.68;;;206.30;;
21099;SDS011;10708;50.824;4.408;2023-02-28T20:11:40;232.50;;;219.60;;
21099;SDS011;10708;50.824;4.408;2023-02-28T20:16:44;217.55;;;205.80;;
21099;SDS011;10708;50.824;4.408;2023-02-28T20:21:47;255.10;;;241.37;;
21099;SDS011;10708;50.824;4.408;2023-02-28T20:26:49;329.70;;;311.60;;
21099;SDS011;10708;50.824;4.408;2023-02-28T20:31:53;333.45;;;315.15;;
21099;SDS011;10708;50.824;4.408;2023-02-28T20:36:56;324.83;;;306.77;;
21099;SDS011;10708;50.824;4.408;2023-02-28T20:41:59;287.85;;;271.63;;
21099;SDS011;10708;50.824;4.408;2023-02-28T20:47:04;234.87;;;221.43;;
21099;SDS011;10708;50.824;4.408;2023-02-28T20:52:06;248.88;;;234.95;;
21099;SDS011;10708;50.824;4.408;2023-02-28T20:57:09;237.50;;;224.05;;
21099;SDS011;10708;50.824;4.408;2023-02-28T21:02:13;232.03;;;219.03;;
21099;SDS011;10708;50.824;4.408;2023-02-28T21:07:17;234.50;;;220.83;;
21099;SDS011;10708;50.824;4.408;2023-02-28T21:12:20;237.90;;;224.60;;
21099;SDS011;10708;50.824;4.408;2023-02-28T21:17:24;220.35;;;207.60;;
21099;SDS011;10708;50.824;4.408;2023-02-28T21:22:26;167.90;;;158.37;;
21099;SDS011;10708;50.824;4.408;2023-02-28T21:27:29;173.57;;;163.63;;
21099;SDS011;10708;50.824;4.408;2023-02-28T21:32:32;205.70;;;194.23;;
21099;SDS011;10708;50.824;4.408;2023-02-28T21:37:36;200.93;;;189.57;;
21099;SDS011;10708;50.824;4.408;2023-02-28T21:42:39;195.30;;;184.15;;
21099;SDS011;10708;50.824;4.408;2023-02-28T21:47:43;192.40;;;181.35;;
21099;SDS011;10708;50.824;4.408;2023-02-28T21:52:45;162.00;;;152.55;;
21099;SDS011;10708;50.824;4.408;2023-02-28T21:57:49;166.63;;;157.13;;
21099;SDS011;10708;50.824;4.408;2023-02-28T22:02:53;214.73;;;202.93;;
21099;SDS011;10708;50.824;4.408;2023-02-28T22:07:55;238.33;;;225.43;;
21099;SDS011;10708;50.824;4.408;2023-02-28T22:13:00;255.95;;;242.30;;
21099;SDS011;10708;50.824;4.408;2023-02-28T22:18:04;269.80;;;255.40;;
21099;SDS011;10708;50.824;4.408;2023-02-28T22:23:07;308.27;;;291.30;;
21099;SDS011;10708;50.824;4.408;2023-02-28T22:28:11;345.65;;;326.75;;
21099;SDS011;10708;50.824;4.408;2023-02-28T22:33:15;359.30;;;339.42;;
21099;SDS011;10708;50.824;4.408;2023-02-28T22:38:18;355.37;;;335.87;;
21099;SDS011;10708;50.824;4.408;2023-02-28T22:43:22;402.40;;;379.57;;
21099;SDS011;10708;50.824;4.408;2023-02-28T22:48:26;407.85;;;384.80;;
21099;SDS011;10708;50.824;4.408;2023-02-28T22:53:28;403.30;;;379.92;;
21099;SDS011;10708;50.824;4.408;2023-02-28T22:58:31;384.10;;;362.75;;
21099;SDS011;10708;50.824;4.408;2023-02-28T23:03:35;370.40;;;350.10;;
21099;SDS011;10708;50.824;4.408;2023-02-28T23:08:41;214.40;;;202.73;;
21099;SDS011;10708;50.824;4.408;2023-02-28T23:13:45;235.07;;;222.40;;
21099;SDS011;10708;50.824;4.408;2023-02-28T23:18:59;263.60;;;249.50;;
21099;SDS011;10708;50.824;4.408;2023-02-28T23:24:04;273.85;;;259.05;;
21099;SDS011;10708;50.824;4.408;2023-02-28T23:29:10;298.43;;;282.10;;
21099;SDS011;10708;50.824;4.408;2023-02-28T23:34:15;301.55;;;285.30;;
21099;SDS011;10708;50.824;4.408;2023-02-28T23:39:25;305.43;;;289.03;;
21099;SDS011;10708;50.824;4.408;2023-02-28T23:44:28;296.02;;;280.10;;
21099;SDS011;10708;50.824;4.408;2023-02-28T23:49:32;252.60;;;238.90;;
21099;SDS011;10708;50.824;4.408;2023-02-28T23:54:35;180.97;;;170.80;;
21099;SDS011;10708;50.824;4.408;2023-02-28T23:59:37;119.88;;;113.10;;
